Saint Joe, Arkansas
Current Conditions -  °F | °C
As of 12:55 AM on Monday 24 Nov 2014 (Local Time) from KFLP Reporting Station
Overcast Overcast  
Wind Chill: 41°   Ceiling: 2300
Heat Index: 46°   Visibility: 10mi
Dew Point: 37°   Wind: 13mph
Humidity: 71%   Direction: 300°WNW
Pressure: 29.49"   Gusts: 28mph
Location:  36.03°N, 92.8°W
Report Text: KFLP 240655Z AUTO 30011G24KT 10SM SCT017 OVC023 08/03 A2949 RMK AO1
Loading
Personal Weather Stations






























Interactive Weather Map New forecast layout! Learn more

10-Day Weather Forecast

Advertisements
Track Severe Weather on mobile